Terminal Aerodrome Forecast
Issued by NWS

Home | Current Version | Previous Version | Text Only | Print | Product List | Glossary Off
Versions: 1 2 3 4 5 6 7 8 9 10 11 12 13 14

000
FTUS43 KTOP 170929 AAA
TAFMHK
TAF AMD
KMHK 170929Z 1709/1806 18012G22KT P6SM SCT007 BKN018
     FM171500 20012G23KT P6SM OVC010
     FM171700 21013G22KT P6SM SCT250
     FM172300 23006KT P6SM SCT250
     FM180200 33004KT P6SM BKN200=

USA.gov is the U.S. government's official web portal to all federal, state and local government web resources and services.